Airfield :
LOGIN :

Register | Disclaimer

   EN    FR    IT 

 










Legend :    VFR   Marginal VFR   IFR   Intensive IFR   Very Intensive IFR
Visi :
Ceiling :
>= 8 km
>= 3000ft
5 to 8 km
1000 to 3000 ft
1500m to 5 km
500 to 1000 ft
800 to 1500m
200 to 500 ft
< 800m
< 200 ft
Symbols :   Thunderstorms  Fog  Heavy snow  Heavy precipitations  Wind > 20 kt
SIGMETs :     Misc.  Thunderstorms  Icing  Turbulence  Mountain Waves  Volcanic Ashes






- Airport Elevation : 70 ft
- IATA code : WBG


ETNS - Schleswig

CURRENT METAR :
  • 090920Z 23018KT 9999 FEW015 BKN018 07/04 Q0992 WHT BLU TEMPO GRN

EXPIRED METARs :
  • 090820Z 22021KT 9999 FEW015 BKN018 06/04 Q0991 WHT BLU TEMPO GRN
  • 090801Z 22020KT 9999 SCT015 SCT050 06/03 Q0991 BLU+BLU+ TEMPO GRN
  • 090720Z 23021KT 9999 FEW013 BKN015 06/04 Q0990 WHT BLU TEMPO GRN

TAF TAF ETNS
Valid from the 09 at 09:00 until the 09 at 18:00 UTC


090820Z 0909/0918 22015G25KT 9999 NSW FEW015 BKN030
TEMPO 0909/0915 23020G30KT 4000 SHRAGS BKN010 BKN020CB
PROB30 0912/0915 29020G35KT 3000 TSRAGS BKN10CB
BECMG 0914/0915 29015G25KT 9999 NSW SCT030 SCT070
PROB30 0915/0918 30020G30KT 4000 SHRA BKN010TCU BY ETGL



MET'MAP, your aeronautical weather chart ! - Copyright ORBIFLY December 2007 - Disclaimer

ORBIFLY MET'MAP TEAM :

Programming & Development : Alexandra Zaïnal
Concept & original design : Baudouin d'Aumeries
Assistance for programming : Marc-Olivier Méhu
Technical & hardware support : Manuel Goepfert

Contact : metmap@orbifly.com




SOURCES & CREDITS :

   NOAA